This is the latest recevied weather packets stored in our database for station/object KO6LQJ. If no packets are shown the sender has not sent any weather packets the latest 10 day(s).
| Time | Temp. | Humidity | Pressure | Rain* | Wind** | Luminosity | Snow |
|---|---|---|---|---|---|---|---|
| 1777581669 | 24.44° C | 47% | 1012.6 hPa | 0 mm | - | 654 W/m² | - |
| 1777581363 | 25.56° C | 45% | 1012.9 hPa | 0 mm | - | 666 W/m² | - |
| 1777581057 | 25.56° C | 45% | 1012.7 hPa | 0 mm | - | 663 W/m² | - |
| 1777580756 | 25.56° C | 46% | 1012.8 hPa | 0 mm | - | 688 W/m² | - |
| 1777580454 | 26.11° C | 45% | 1012.8 hPa | 0 mm | - | 701 W/m² | - |
| 1777580154 | 26.11° C | 44% | 1012.8 hPa | 0 mm | - | 665 W/m² | - |
| 1777579851 | 25° C | 44% | 1012.9 hPa | 0 mm | - | 685 W/m² | - |
| 1777579550 | 26.11° C | 43% | 1012.9 hPa | 0 mm | - | 680 W/m² | - |
| 1777579250 | 25.56° C | 43% | 1012.9 hPa | 0 mm | - | 693 W/m² | - |
| 1777578946 | 24.44° C | 43% | 1013 hPa | 0 mm | - | 678 W/m² | - |
| 1777578641 | 25° C | 45% | 1013.1 hPa | 0 mm | - | 697 W/m² | - |
| 1777578341 | 25° C | 44% | 1013 hPa | 0 mm | - | 712 W/m² | - |
| 1777578038 | 25.56° C | 42% | 1013.3 hPa | 0 mm | - | 224 W/m² | - |
| 1777577738 | 24.44° C | 43% | 1013 hPa | 0 mm | - | 730 W/m² | - |
| 1777577435 | 24.44° C | 43% | 1013.3 hPa | 0 mm | - | 727 W/m² | - |
| 1777577132 | 25° C | 42% | 1013.4 hPa | 0 mm | - | 739 W/m² | - |
| 1777576828 | 25° C | 43% | 1013.3 hPa | 0 mm | - | 730 W/m² | - |
| 1777576527 | 25° C | 43% | 1013.5 hPa | 0 mm | - | 705 W/m² | - |
| 1777576224 | 24.44° C | 43% | 1013.6 hPa | 0 mm | - | 701 W/m² | - |
| 1777575920 | 24.44° C | 44% | 1013.5 hPa | 0 mm | - | 727 W/m² | - |
| 1777575616 | 24.44° C | 45% | 1013.6 hPa | 0 mm | - | 751 W/m² | - |
| 1777575312 | 23.89° C | 46% | 1013.8 hPa | 0 mm | - | 762 W/m² | - |
| 1777575008 | 22.78° C | 48% | 1013.9 hPa | 0 mm | - | 739 W/m² | - |
| 1777574704 | 23.89° C | 46% | 1014 hPa | 0 mm | - | 747 W/m² | - |
| 1777574401 | 23.33° C | 47% | 1014.2 hPa | 0 mm | - | 774 W/m² | - |
* Rain latest hour (hover to see other rain measurements)
** Current wind speed in m/s (hover to see current wind gust speed)